sensor_id;sensor_type;location;lat;lon;timestamp;temperature;humidity
29363;DHT22;16349;53.672;10.014;2023-06-05T00:00:40;12.60;99.90
29363;DHT22;16349;53.672;10.014;2023-06-05T00:03:06;12.50;99.90
29363;DHT22;16349;53.672;10.014;2023-06-05T00:05:34;12.50;99.90
29363;DHT22;16349;53.672;10.014;2023-06-05T00:08:01;12.50;99.90
29363;DHT22;16349;53.672;10.014;2023-06-05T00:10:28;12.50;99.90
29363;DHT22;16349;53.672;10.014;2023-06-05T00:12:57;12.50;99.90
29363;DHT22;16349;53.672;10.014;2023-06-05T00:15:24;12.50;99.90
29363;DHT22;16349;53.672;10.014;2023-06-05T00:17:51;12.50;99.90
29363;DHT22;16349;53.672;10.014;2023-06-05T00:20:18;12.40;99.90
29363;DHT22;16349;53.672;10.014;2023-06-05T00:22:45;12.30;99.90
29363;DHT22;16349;53.672;10.014;2023-06-05T00:25:12;12.30;99.90
29363;DHT22;16349;53.672;10.014;2023-06-05T00:27:39;12.30;99.90
29363;DHT22;16349;53.672;10.014;2023-06-05T00:30:08;12.20;99.90
29363;DHT22;16349;53.672;10.014;2023-06-05T00:32:36;12.20;99.90
29363;DHT22;16349;53.672;10.014;2023-06-05T00:35:04;12.10;99.90
29363;DHT22;16349;53.672;10.014;2023-06-05T00:37:31;12.10;99.90
29363;DHT22;16349;53.672;10.014;2023-06-05T00:40:00;12.00;99.90
29363;DHT22;16349;53.672;10.014;2023-06-05T00:42:26;11.90;99.90
29363;DHT22;16349;53.672;10.014;2023-06-05T00:44:53;11.90;99.90
29363;DHT22;16349;53.672;10.014;2023-06-05T00:47:22;11.90;99.90
29363;DHT22;16349;53.672;10.014;2023-06-05T00:49:51;11.90;99.90
29363;DHT22;16349;53.672;10.014;2023-06-05T00:52:17;11.90;99.90
29363;DHT22;16349;53.672;10.014;2023-06-05T00:54:45;11.90;99.90
29363;DHT22;16349;53.672;10.014;2023-06-05T00:57:13;11.80;99.90
29363;DHT22;16349;53.672;10.014;2023-06-05T00:59:40;11.70;99.90
29363;DHT22;16349;53.672;10.014;2023-06-05T01:02:11;11.70;99.90
29363;DHT22;16349;53.672;10.014;2023-06-05T01:04:41;11.70;99.90
29363;DHT22;16349;53.672;10.014;2023-06-05T01:07:09;11.70;99.90
29363;DHT22;16349;53.672;10.014;2023-06-05T01:09:36;11.60;99.90
29363;DHT22;16349;53.672;10.014;2023-06-05T01:12:08;11.60;99.90
29363;DHT22;16349;53.672;10.014;2023-06-05T01:14:41;11.50;99.90
29363;DHT22;16349;53.672;10.014;2023-06-05T01:17:12;11.50;99.90
29363;DHT22;16349;53.672;10.014;2023-06-05T01:19:41;11.40;99.90
29363;DHT22;16349;53.672;10.014;2023-06-05T01:22:09;11.40;99.90
29363;DHT22;16349;53.672;10.014;2023-06-05T01:24:40;11.40;99.90
29363;DHT22;16349;53.672;10.014;2023-06-05T01:27:13;11.40;99.90
29363;DHT22;16349;53.672;10.014;2023-06-05T01:29:49;11.40;99.90
29363;DHT22;16349;53.672;10.014;2023-06-05T01:32:23;11.40;99.90
29363;DHT22;16349;53.672;10.014;2023-06-05T01:34:53;11.50;99.90
29363;DHT22;16349;53.672;10.014;2023-06-05T01:37:21;11.40;99.90
29363;DHT22;16349;53.672;10.014;2023-06-05T01:39:53;11.40;99.90
29363;DHT22;16349;53.672;10.014;2023-06-05T01:42:22;11.30;99.90
29363;DHT22;16349;53.672;10.014;2023-06-05T01:44:50;11.20;99.90
29363;DHT22;16349;53.672;10.014;2023-06-05T01:47:17;11.20;99.90
29363;DHT22;16349;53.672;10.014;2023-06-05T01:49:46;11.20;99.90
29363;DHT22;16349;53.672;10.014;2023-06-05T01:52:14;11.20;99.90
29363;DHT22;16349;53.672;10.014;2023-06-05T01:54:41;11.20;99.90
29363;DHT22;16349;53.672;10.014;2023-06-05T01:57:09;11.20;99.90
29363;DHT22;16349;53.672;10.014;2023-06-05T01:59:36;11.10;99.90
29363;DHT22;16349;53.672;10.014;2023-06-05T02:02:04;11.10;99.90
29363;DHT22;16349;53.672;10.014;2023-06-05T02:04:30;11.10;99.90
29363;DHT22;16349;53.672;10.014;2023-06-05T02:06:58;11.00;99.90
29363;DHT22;16349;53.672;10.014;2023-06-05T02:09:29;11.00;99.90
29363;DHT22;16349;53.672;10.014;2023-06-05T02:11:58;11.00;99.90
29363;DHT22;16349;53.672;10.014;2023-06-05T02:14:31;11.00;99.90
29363;DHT22;16349;53.672;10.014;2023-06-05T02:17:03;11.00;99.90
29363;DHT22;16349;53.672;10.014;2023-06-05T02:19:31;11.00;99.90
29363;DHT22;16349;53.672;10.014;2023-06-05T02:21:58;11.00;99.90
29363;DHT22;16349;53.672;10.014;2023-06-05T02:24:25;11.00;99.90
29363;DHT22;16349;53.672;10.014;2023-06-05T02:26:53;11.00;99.90
29363;DHT22;16349;53.672;10.014;2023-06-05T02:29:20;11.00;99.90
29363;DHT22;16349;53.672;10.014;2023-06-05T02:31:48;11.00;99.90
29363;DHT22;16349;53.672;10.014;2023-06-05T02:34:16;10.90;99.90
29363;DHT22;16349;53.672;10.014;2023-06-05T02:36:43;11.00;99.90
29363;DHT22;16349;53.672;10.014;2023-06-05T02:39:11;10.90;99.90
29363;DHT22;16349;53.672;10.014;2023-06-05T02:41:59;10.90;99.90
29363;DHT22;16349;53.672;10.014;2023-06-05T02:44:26;10.90;99.90
29363;DHT22;16349;53.672;10.014;2023-06-05T02:46:55;10.80;99.90
29363;DHT22;16349;53.672;10.014;2023-06-05T02:49:22;10.80;99.90
29363;DHT22;16349;53.672;10.014;2023-06-05T02:51:49;10.70;99.90
29363;DHT22;16349;53.672;10.014;2023-06-05T02:54:15;10.70;99.90
29363;DHT22;16349;53.672;10.014;2023-06-05T02:57:04;10.70;99.90
29363;DHT22;16349;53.672;10.014;2023-06-05T02:59:33;10.60;99.90
29363;DHT22;16349;53.672;10.014;2023-06-05T03:02:11;10.50;99.90
29363;DHT22;16349;53.672;10.014;2023-06-05T03:04:40;10.50;99.90
29363;DHT22;16349;53.672;10.014;2023-06-05T03:07:09;10.40;99.90
29363;DHT22;16349;53.672;10.014;2023-06-05T03:09:41;10.50;99.90
29363;DHT22;16349;53.672;10.014;2023-06-05T03:12:08;10.50;99.90
29363;DHT22;16349;53.672;10.014;2023-06-05T03:14:35;10.50;99.90
29363;DHT22;16349;53.672;10.014;2023-06-05T03:17:02;10.50;99.90
29363;DHT22;16349;53.672;10.014;2023-06-05T03:19:30;10.50;99.90
29363;DHT22;16349;53.672;10.014;2023-06-05T03:22:01;10.50;99.90
29363;DHT22;16349;53.672;10.014;2023-06-05T03:24:29;10.50;99.90
29363;DHT22;16349;53.672;10.014;2023-06-05T03:27:01;10.40;99.90
29363;DHT22;16349;53.672;10.014;2023-06-05T03:29:28;10.40;99.90
29363;DHT22;16349;53.672;10.014;2023-06-05T03:31:56;10.40;99.90
29363;DHT22;16349;53.672;10.014;2023-06-05T03:34:23;10.40;99.90
29363;DHT22;16349;53.672;10.014;2023-06-05T03:36:56;10.40;99.90
29363;DHT22;16349;53.672;10.014;2023-06-05T03:39:25;10.40;99.90
29363;DHT22;16349;53.672;10.014;2023-06-05T03:41:53;10.40;99.90
29363;DHT22;16349;53.672;10.014;2023-06-05T03:44:22;10.40;99.90
29363;DHT22;16349;53.672;10.014;2023-06-05T03:46:50;10.40;99.90
29363;DHT22;16349;53.672;10.014;2023-06-05T03:49:18;10.40;99.90
29363;DHT22;16349;53.672;10.014;2023-06-05T03:51:48;10.40;99.90
29363;DHT22;16349;53.672;10.014;2023-06-05T03:54:17;10.50;99.90
29363;DHT22;16349;53.672;10.014;2023-06-05T03:56:45;10.50;99.90
29363;DHT22;16349;53.672;10.014;2023-06-05T03:59:16;10.50;99.90
29363;DHT22;16349;53.672;10.014;2023-06-05T04:01:50;10.50;99.90
29363;DHT22;16349;53.672;10.014;2023-06-05T04:04:17;10.50;99.90
29363;DHT22;16349;53.672;10.014;2023-06-05T04:06:44;10.50;99.90
29363;DHT22;16349;53.672;10.014;2023-06-05T04:09:12;10.50;99.90
29363;DHT22;16349;53.672;10.014;2023-06-05T04:11:43;10.60;99.90
29363;DHT22;16349;53.672;10.014;2023-06-05T04:14:11;10.50;99.90
29363;DHT22;16349;53.672;10.014;2023-06-05T04:16:39;10.50;99.90
29363;DHT22;16349;53.672;10.014;2023-06-05T04:19:12;10.50;99.90
29363;DHT22;16349;53.672;10.014;2023-06-05T04:21:42;10.60;99.90
29363;DHT22;16349;53.672;10.014;2023-06-05T04:24:10;10.60;99.90
29363;DHT22;16349;53.672;10.014;2023-06-05T04:26:38;10.60;99.90
29363;DHT22;16349;53.672;10.014;2023-06-05T04:29:08;10.70;99.90
29363;DHT22;16349;53.672;10.014;2023-06-05T04:31:41;10.70;99.90
29363;DHT22;16349;53.672;10.014;2023-06-05T04:34:08;10.70;99.90
29363;DHT22;16349;53.672;10.014;2023-06-05T04:36:35;10.70;99.90
29363;DHT22;16349;53.672;10.014;2023-06-05T04:39:03;10.80;99.90
29363;DHT22;16349;53.672;10.014;2023-06-05T04:41:33;10.80;99.90
29363;DHT22;16349;53.672;10.014;2023-06-05T04:44:02;10.90;99.90
29363;DHT22;16349;53.672;10.014;2023-06-05T04:46:32;10.90;99.90
29363;DHT22;16349;53.672;10.014;2023-06-05T04:48:59;11.00;99.90
29363;DHT22;16349;53.672;10.014;2023-06-05T04:51:26;11.00;99.90
29363;DHT22;16349;53.672;10.014;2023-06-05T04:53:53;11.10;99.90
29363;DHT22;16349;53.672;10.014;2023-06-05T04:56:23;11.10;99.90
29363;DHT22;16349;53.672;10.014;2023-06-05T04:58:51;11.10;99.90
29363;DHT22;16349;53.672;10.014;2023-06-05T05:01:19;11.20;99.90
29363;DHT22;16349;53.672;10.014;2023-06-05T05:03:48;11.20;99.90
29363;DHT22;16349;53.672;10.014;2023-06-05T05:06:16;11.30;99.90
29363;DHT22;16349;53.672;10.014;2023-06-05T05:08:43;11.30;99.90
29363;DHT22;16349;53.672;10.014;2023-06-05T05:11:12;11.30;99.90
29363;DHT22;16349;53.672;10.014;2023-06-05T05:13:40;11.40;99.90
29363;DHT22;16349;53.672;10.014;2023-06-05T05:16:10;11.40;99.90
29363;DHT22;16349;53.672;10.014;2023-06-05T05:18:40;11.50;99.90
29363;DHT22;16349;53.672;10.014;2023-06-05T05:21:09;11.50;99.90
29363;DHT22;16349;53.672;10.014;2023-06-05T05:23:35;11.80;99.90
29363;DHT22;16349;53.672;10.014;2023-06-05T05:26:03;11.80;99.90
29363;DHT22;16349;53.672;10.014;2023-06-05T05:28:30;11.80;99.90
29363;DHT22;16349;53.672;10.014;2023-06-05T05:30:58;11.90;99.90
29363;DHT22;16349;53.672;10.014;2023-06-05T05:33:26;12.20;99.90
29363;DHT22;16349;53.672;10.014;2023-06-05T05:35:53;12.10;99.90
29363;DHT22;16349;53.672;10.014;2023-06-05T05:38:24;12.20;99.90
29363;DHT22;16349;53.672;10.014;2023-06-05T05:40:50;12.50;99.90
29363;DHT22;16349;53.672;10.014;2023-06-05T05:43:19;12.80;99.90
29363;DHT22;16349;53.672;10.014;2023-06-05T05:45:46;12.60;99.90
29363;DHT22;16349;53.672;10.014;2023-06-05T05:48:16;12.60;99.90
29363;DHT22;16349;53.672;10.014;2023-06-05T05:50:45;12.60;99.90
29363;DHT22;16349;53.672;10.014;2023-06-05T05:53:11;12.60;99.90
29363;DHT22;16349;53.672;10.014;2023-06-05T05:55:40;12.70;99.90
29363;DHT22;16349;53.672;10.014;2023-06-05T05:58:07;12.70;99.90
29363;DHT22;16349;53.672;10.014;2023-06-05T06:00:35;12.80;99.90
29363;DHT22;16349;53.672;10.014;2023-06-05T06:03:02;12.90;99.90
29363;DHT22;16349;53.672;10.014;2023-06-05T06:05:33;12.90;99.90
29363;DHT22;16349;53.672;10.014;2023-06-05T06:08:02;13.00;99.90
29363;DHT22;16349;53.672;10.014;2023-06-05T06:10:29;13.10;99.90
29363;DHT22;16349;53.672;10.014;2023-06-05T06:12:58;13.10;99.90
29363;DHT22;16349;53.672;10.014;2023-06-05T06:15:26;13.20;99.90
29363;DHT22;16349;53.672;10.014;2023-06-05T06:17:56;13.30;99.90
29363;DHT22;16349;53.672;10.014;2023-06-05T06:20:23;13.40;99.90
29363;DHT22;16349;53.672;10.014;2023-06-05T06:22:50;13.50;99.90
29363;DHT22;16349;53.672;10.014;2023-06-05T06:25:19;13.50;99.90
29363;DHT22;16349;53.672;10.014;2023-06-05T06:27:47;13.60;99.90
29363;DHT22;16349;53.672;10.014;2023-06-05T06:30:16;13.70;99.90
29363;DHT22;16349;53.672;10.014;2023-06-05T06:32:43;13.80;99.90
29363;DHT22;16349;53.672;10.014;2023-06-05T06:35:11;13.80;99.90
29363;DHT22;16349;53.672;10.014;2023-06-05T06:37:39;13.90;99.90
29363;DHT22;16349;53.672;10.014;2023-06-05T06:40:07;14.00;99.90
29363;DHT22;16349;53.672;10.014;2023-06-05T06:42:37;14.10;99.90
29363;DHT22;16349;53.672;10.014;2023-06-05T06:45:34;14.20;99.90
29363;DHT22;16349;53.672;10.014;2023-06-05T06:48:01;14.30;99.90
29363;DHT22;16349;53.672;10.014;2023-06-05T06:50:29;14.40;99.90
29363;DHT22;16349;53.672;10.014;2023-06-05T06:52:55;14.50;99.90
29363;DHT22;16349;53.672;10.014;2023-06-05T06:55:22;14.50;99.90
29363;DHT22;16349;53.672;10.014;2023-06-05T06:57:49;14.70;99.90
29363;DHT22;16349;53.672;10.014;2023-06-05T07:00:16;14.80;99.90
29363;DHT22;16349;53.672;10.014;2023-06-05T07:02:47;14.80;99.90
29363;DHT22;16349;53.672;10.014;2023-06-05T07:05:14;14.90;99.90
29363;DHT22;16349;53.672;10.014;2023-06-05T07:07:41;15.00;99.90
29363;DHT22;16349;53.672;10.014;2023-06-05T07:10:09;15.00;99.90
29363;DHT22;16349;53.672;10.014;2023-06-05T07:12:36;15.10;99.90
29363;DHT22;16349;53.672;10.014;2023-06-05T07:15:04;15.20;99.90
29363;DHT22;16349;53.672;10.014;2023-06-05T07:17:32;15.30;99.90
29363;DHT22;16349;53.672;10.014;2023-06-05T07:20:00;15.40;99.90
29363;DHT22;16349;53.672;10.014;2023-06-05T07:22:26;15.40;99.90
29363;DHT22;16349;53.672;10.014;2023-06-05T07:24:54;15.50;99.90
29363;DHT22;16349;53.672;10.014;2023-06-05T07:27:21;15.60;99.90
29363;DHT22;16349;53.672;10.014;2023-06-05T07:29:48;15.60;99.90
29363;DHT22;16349;53.672;10.014;2023-06-05T07:32:15;15.70;99.90
29363;DHT22;16349;53.672;10.014;2023-06-05T07:34:42;15.80;99.90
29363;DHT22;16349;53.672;10.014;2023-06-05T07:37:10;15.80;99.90
29363;DHT22;16349;53.672;10.014;2023-06-05T07:39:38;15.90;99.90
29363;DHT22;16349;53.672;10.014;2023-06-05T07:42:05;15.90;99.90
29363;DHT22;16349;53.672;10.014;2023-06-05T07:44:32;16.00;99.90
29363;DHT22;16349;53.672;10.014;2023-06-05T07:46:59;16.20;99.90
29363;DHT22;16349;53.672;10.014;2023-06-05T07:49:30;16.20;99.90
29363;DHT22;16349;53.672;10.014;2023-06-05T07:51:57;16.30;99.90
29363;DHT22;16349;53.672;10.014;2023-06-05T07:54:25;16.40;99.90
29363;DHT22;16349;53.672;10.014;2023-06-05T07:56:51;16.50;99.90
29363;DHT22;16349;53.672;10.014;2023-06-05T07:59:19;16.60;99.90
29363;DHT22;16349;53.672;10.014;2023-06-05T08:01:51;16.80;99.90
29363;DHT22;16349;53.672;10.014;2023-06-05T08:06:50;16.90;99.90
29363;DHT22;16349;53.672;10.014;2023-06-05T08:09:18;17.00;99.90
29363;DHT22;16349;53.672;10.014;2023-06-05T08:11:46;17.00;99.90
29363;DHT22;16349;53.672;10.014;2023-06-05T08:14:13;17.10;99.90
29363;DHT22;16349;53.672;10.014;2023-06-05T08:16:40;17.30;99.90
29363;DHT22;16349;53.672;10.014;2023-06-05T08:19:07;17.20;99.90
29363;DHT22;16349;53.672;10.014;2023-06-05T08:21:34;17.20;99.90
29363;DHT22;16349;53.672;10.014;2023-06-05T08:24:02;17.40;99.90
29363;DHT22;16349;53.672;10.014;2023-06-05T08:26:29;17.50;99.90
29363;DHT22;16349;53.672;10.014;2023-06-05T08:28:59;17.60;99.90
29363;DHT22;16349;53.672;10.014;2023-06-05T08:31:26;17.70;99.90
29363;DHT22;16349;53.672;10.014;2023-06-05T08:33:52;17.70;99.90
29363;DHT22;16349;53.672;10.014;2023-06-05T08:36:19;17.90;99.90
29363;DHT22;16349;53.672;10.014;2023-06-05T08:38:47;17.90;99.90
29363;DHT22;16349;53.672;10.014;2023-06-05T08:41:14;18.00;99.90
29363;DHT22;16349;53.672;10.014;2023-06-05T08:43:42;18.00;99.90
29363;DHT22;16349;53.672;10.014;2023-06-05T08:46:12;18.30;99.90
29363;DHT22;16349;53.672;10.014;2023-06-05T08:48:42;18.20;99.90
29363;DHT22;16349;53.672;10.014;2023-06-05T08:51:10;18.30;99.90
29363;DHT22;16349;53.672;10.014;2023-06-05T08:53:38;18.40;99.90
29363;DHT22;16349;53.672;10.014;2023-06-05T08:56:06;18.60;99.90
29363;DHT22;16349;53.672;10.014;2023-06-05T08:58:34;18.70;99.90
29363;DHT22;16349;53.672;10.014;2023-06-05T09:01:01;18.90;99.90
29363;DHT22;16349;53.672;10.014;2023-06-05T09:03:32;18.90;99.90
29363;DHT22;16349;53.672;10.014;2023-06-05T09:05:58;18.90;99.90
29363;DHT22;16349;53.672;10.014;2023-06-05T09:08:30;19.10;99.90
29363;DHT22;16349;53.672;10.014;2023-06-05T09:11:20;19.10;99.90
29363;DHT22;16349;53.672;10.014;2023-06-05T09:13:47;19.20;99.90
29363;DHT22;16349;53.672;10.014;2023-06-05T09:16:14;19.00;99.90
29363;DHT22;16349;53.672;10.014;2023-06-05T09:18:53;19.00;99.90
29363;DHT22;16349;53.672;10.014;2023-06-05T09:21:21;19.20;99.90
29363;DHT22;16349;53.672;10.014;2023-06-05T09:26:46;19.50;99.90
29363;DHT22;16349;53.672;10.014;2023-06-05T09:29:16;19.50;99.90
29363;DHT22;16349;53.672;10.014;2023-06-05T09:31:45;19.70;99.90
29363;DHT22;16349;53.672;10.014;2023-06-05T09:34:20;19.90;99.90
29363;DHT22;16349;53.672;10.014;2023-06-05T09:36:47;20.00;99.90
29363;DHT22;16349;53.672;10.014;2023-06-05T09:39:14;19.90;99.50
29363;DHT22;16349;53.672;10.014;2023-06-05T09:41:42;19.80;99.40
29363;DHT22;16349;53.672;10.014;2023-06-05T09:44:10;19.80;99.20
29363;DHT22;16349;53.672;10.014;2023-06-05T09:46:50;20.10;99.30
29363;DHT22;16349;53.672;10.014;2023-06-05T09:49:19;20.10;99.40
29363;DHT22;16349;53.672;10.014;2023-06-05T09:51:46;20.10;99.40
29363;DHT22;16349;53.672;10.014;2023-06-05T09:54:13;20.30;99.40
29363;DHT22;16349;53.672;10.014;2023-06-05T09:56:40;20.50;99.90
29363;DHT22;16349;53.672;10.014;2023-06-05T09:59:08;20.60;99.90
29363;DHT22;16349;53.672;10.014;2023-06-05T10:01:36;20.60;99.90
29363;DHT22;16349;53.672;10.014;2023-06-05T10:04:06;20.70;99.90
29363;DHT22;16349;53.672;10.014;2023-06-05T10:06:36;21.00;99.90
29363;DHT22;16349;53.672;10.014;2023-06-05T10:09:04;21.00;97.10
29363;DHT22;16349;53.672;10.014;2023-06-05T10:11:30;21.00;97.50
29363;DHT22;16349;53.672;10.014;2023-06-05T10:13:57;21.20;99.90
29363;DHT22;16349;53.672;10.014;2023-06-05T10:16:27;21.10;99.90
29363;DHT22;16349;53.672;10.014;2023-06-05T10:18:55;21.10;99.90
29363;DHT22;16349;53.672;10.014;2023-06-05T10:21:23;21.10;99.90
29363;DHT22;16349;53.672;10.014;2023-06-05T10:23:55;21.10;99.90
29363;DHT22;16349;53.672;10.014;2023-06-05T10:26:41;21.10;96.00
29363;DHT22;16349;53.672;10.014;2023-06-05T10:29:23;21.20;96.10
29363;DHT22;16349;53.672;10.014;2023-06-05T10:31:59;21.20;96.40
29363;DHT22;16349;53.672;10.014;2023-06-05T10:34:35;21.40;94.80
29363;DHT22;16349;53.672;10.014;2023-06-05T10:37:30;21.50;94.00
29363;DHT22;16349;53.672;10.014;2023-06-05T10:40:02;21.50;93.80
29363;DHT22;16349;53.672;10.014;2023-06-05T10:42:30;21.80;99.90
29363;DHT22;16349;53.672;10.014;2023-06-05T10:44:57;21.30;99.90
29363;DHT22;16349;53.672;10.014;2023-06-05T10:47:49;20.70;99.90
29363;DHT22;16349;53.672;10.014;2023-06-05T10:50:22;21.30;99.90
29363;DHT22;16349;53.672;10.014;2023-06-05T10:52:52;21.80;93.00
29363;DHT22;16349;53.672;10.014;2023-06-05T10:55:22;22.10;92.30
29363;DHT22;16349;53.672;10.014;2023-06-05T11:16:31;22.60;99.90
29363;DHT22;16349;53.672;10.014;2023-06-05T11:22:06;22.50;99.90
29363;DHT22;16349;53.672;10.014;2023-06-05T11:24:34;22.50;99.90
29363;DHT22;16349;53.672;10.014;2023-06-05T11:27:03;22.60;99.90
29363;DHT22;16349;53.672;10.014;2023-06-05T11:29:32;22.70;99.90
29363;DHT22;16349;53.672;10.014;2023-06-05T11:36:55;23.30;87.10
29363;DHT22;16349;53.672;10.014;2023-06-05T11:39:23;23.40;99.90
29363;DHT22;16349;53.672;10.014;2023-06-05T11:41:56;23.30;99.90
29363;DHT22;16349;53.672;10.014;2023-06-05T11:44:34;23.30;99.90
29363;DHT22;16349;53.672;10.014;2023-06-05T11:47:01;23.30;99.90
29363;DHT22;16349;53.672;10.014;2023-06-05T11:49:29;23.20;99.90
29363;DHT22;16349;53.672;10.014;2023-06-05T11:51:56;23.30;99.90
29363;DHT22;16349;53.672;10.014;2023-06-05T11:54:27;23.40;99.90
29363;DHT22;16349;53.672;10.014;2023-06-05T11:56:59;23.00;99.90
29363;DHT22;16349;53.672;10.014;2023-06-05T11:59:35;22.90;99.90
29363;DHT22;16349;53.672;10.014;2023-06-05T12:02:02;23.00;99.90
29363;DHT22;16349;53.672;10.014;2023-06-05T12:04:29;23.00;99.90
29363;DHT22;16349;53.672;10.014;2023-06-05T12:06:57;23.20;99.90
29363;DHT22;16349;53.672;10.014;2023-06-05T12:09:25;23.20;99.40
29363;DHT22;16349;53.672;10.014;2023-06-05T12:11:52;23.20;99.40
29363;DHT22;16349;53.672;10.014;2023-06-05T12:14:29;23.20;99.90
29363;DHT22;16349;53.672;10.014;2023-06-05T12:16:58;23.30;99.90
29363;DHT22;16349;53.672;10.014;2023-06-05T12:19:25;23.20;99.90
29363;DHT22;16349;53.672;10.014;2023-06-05T12:22:02;23.00;99.90
29363;DHT22;16349;53.672;10.014;2023-06-05T12:24:29;23.00;99.40
29363;DHT22;16349;53.672;10.014;2023-06-05T12:26:58;23.00;99.90
29363;DHT22;16349;53.672;10.014;2023-06-05T12:29:26;22.90;99.90
29363;DHT22;16349;53.672;10.014;2023-06-05T12:31:55;23.00;99.90
29363;DHT22;16349;53.672;10.014;2023-06-05T12:34:43;23.00;99.90
29363;DHT22;16349;53.672;10.014;2023-06-05T12:37:21;23.10;99.90
29363;DHT22;16349;53.672;10.014;2023-06-05T12:39:48;23.30;99.90
29363;DHT22;16349;53.672;10.014;2023-06-05T12:42:15;23.60;99.50
29363;DHT22;16349;53.672;10.014;2023-06-05T12:44:42;23.80;98.70
29363;DHT22;16349;53.672;10.014;2023-06-05T12:47:09;24.10;80.70
29363;DHT22;16349;53.672;10.014;2023-06-05T12:49:36;24.20;73.60
29363;DHT22;16349;53.672;10.014;2023-06-05T12:52:06;24.40;73.10
29363;DHT22;16349;53.672;10.014;2023-06-05T12:54:35;24.70;71.80
29363;DHT22;16349;53.672;10.014;2023-06-05T12:57:02;24.80;71.80
29363;DHT22;16349;53.672;10.014;2023-06-05T13:01:56;25.90;96.40
29363;DHT22;16349;53.672;10.014;2023-06-05T13:04:22;26.10;66.70
29363;DHT22;16349;53.672;10.014;2023-06-05T13:06:50;26.40;66.50
29363;DHT22;16349;53.672;10.014;2023-06-05T13:09:18;26.90;64.50
29363;DHT22;16349;53.672;10.014;2023-06-05T13:11:44;27.20;64.40
29363;DHT22;16349;53.672;10.014;2023-06-05T13:14:12;27.80;61.70
29363;DHT22;16349;53.672;10.014;2023-06-05T13:16:38;28.00;85.40
29363;DHT22;16349;53.672;10.014;2023-06-05T13:19:05;28.10;59.20
29363;DHT22;16349;53.672;10.014;2023-06-05T13:21:32;28.50;83.50
29363;DHT22;16349;53.672;10.014;2023-06-05T13:23:59;28.80;57.70
29363;DHT22;16349;53.672;10.014;2023-06-05T13:26:26;28.90;56.30
29363;DHT22;16349;53.672;10.014;2023-06-05T13:28:54;28.50;55.00
29363;DHT22;16349;53.672;10.014;2023-06-05T13:31:21;28.30;54.40
29363;DHT22;16349;53.672;10.014;2023-06-05T13:33:47;27.90;54.80
29363;DHT22;16349;53.672;10.014;2023-06-05T13:36:14;27.60;54.80
29363;DHT22;16349;53.672;10.014;2023-06-05T13:38:41;27.20;54.50
29363;DHT22;16349;53.672;10.014;2023-06-05T13:41:08;26.90;55.80
29363;DHT22;16349;53.672;10.014;2023-06-05T13:43:36;26.50;56.70
29363;DHT22;16349;53.672;10.014;2023-06-05T13:46:04;26.20;57.20
29363;DHT22;16349;53.672;10.014;2023-06-05T13:48:30;25.80;58.00
29363;DHT22;16349;53.672;10.014;2023-06-05T13:51:00;25.60;58.60
29363;DHT22;16349;53.672;10.014;2023-06-05T13:53:27;25.30;59.30
29363;DHT22;16349;53.672;10.014;2023-06-05T13:55:59;25.10;58.90
29363;DHT22;16349;53.672;10.014;2023-06-05T13:58:26;25.10;67.90
29363;DHT22;16349;53.672;10.014;2023-06-05T14:00:54;24.90;69.60
29363;DHT22;16349;53.672;10.014;2023-06-05T14:03:21;24.70;78.10
29363;DHT22;16349;53.672;10.014;2023-06-05T14:05:48;24.80;73.30
29363;DHT22;16349;53.672;10.014;2023-06-05T14:08:15;24.70;76.20
29363;DHT22;16349;53.672;10.014;2023-06-05T14:10:42;24.40;74.60
29363;DHT22;16349;53.672;10.014;2023-06-05T14:13:09;24.40;88.30
29363;DHT22;16349;53.672;10.014;2023-06-05T14:15:36;24.40;91.90
29363;DHT22;16349;53.672;10.014;2023-06-05T14:18:05;24.40;91.60
29363;DHT22;16349;53.672;10.014;2023-06-05T14:20:34;24.60;78.20
29363;DHT22;16349;53.672;10.014;2023-06-05T14:23:01;25.50;74.40
29363;DHT22;16349;53.672;10.014;2023-06-05T14:25:29;26.30;70.30
29363;DHT22;16349;53.672;10.014;2023-06-05T14:27:57;26.60;66.20
29363;DHT22;16349;53.672;10.014;2023-06-05T14:30:25;26.20;65.50
29363;DHT22;16349;53.672;10.014;2023-06-05T14:32:52;26.00;66.80
29363;DHT22;16349;53.672;10.014;2023-06-05T14:35:20;25.50;67.60
29363;DHT22;16349;53.672;10.014;2023-06-05T14:37:48;25.30;68.10
29363;DHT22;16349;53.672;10.014;2023-06-05T14:40:14;25.10;69.00
29363;DHT22;16349;53.672;10.014;2023-06-05T14:42:41;25.30;68.40
29363;DHT22;16349;53.672;10.014;2023-06-05T14:45:08;26.00;66.30
29363;DHT22;16349;53.672;10.014;2023-06-05T14:47:35;26.80;65.10
29363;DHT22;16349;53.672;10.014;2023-06-05T14:50:02;27.00;64.90
29363;DHT22;16349;53.672;10.014;2023-06-05T14:52:32;27.30;62.70
29363;DHT22;16349;53.672;10.014;2023-06-05T14:54:58;27.80;60.40
29363;DHT22;16349;53.672;10.014;2023-06-05T14:57:25;28.60;72.90
29363;DHT22;16349;53.672;10.014;2023-06-05T14:59:51;28.10;69.90
29363;DHT22;16349;53.672;10.014;2023-06-05T15:02:18;27.80;67.50
29363;DHT22;16349;53.672;10.014;2023-06-05T15:04:47;28.50;58.90
29363;DHT22;16349;53.672;10.014;2023-06-05T15:07:18;29.10;51.50
29363;DHT22;16349;53.672;10.014;2023-06-05T15:09:46;29.40;49.20
29363;DHT22;16349;53.672;10.014;2023-06-05T15:12:15;29.70;49.70
29363;DHT22;16349;53.672;10.014;2023-06-05T15:14:41;30.10;49.30
29363;DHT22;16349;53.672;10.014;2023-06-05T15:17:08;30.50;48.80
29363;DHT22;16349;53.672;10.014;2023-06-05T15:19:35;30.90;47.50
29363;DHT22;16349;53.672;10.014;2023-06-05T15:22:02;30.50;47.90
29363;DHT22;16349;53.672;10.014;2023-06-05T15:24:29;29.60;49.30
29363;DHT22;16349;53.672;10.014;2023-06-05T15:26:57;29.20;50.50
29363;DHT22;16349;53.672;10.014;2023-06-05T15:29:23;29.40;50.40
29363;DHT22;16349;53.672;10.014;2023-06-05T15:31:50;29.30;50.10
29363;DHT22;16349;53.672;10.014;2023-06-05T15:34:17;28.70;50.80
29363;DHT22;16349;53.672;10.014;2023-06-05T15:36:43;28.10;52.40
29363;DHT22;16349;53.672;10.014;2023-06-05T15:39:11;28.00;51.60
29363;DHT22;16349;53.672;10.014;2023-06-05T15:41:38;28.60;51.30
29363;DHT22;16349;53.672;10.014;2023-06-05T15:44:07;28.90;49.80
29363;DHT22;16349;53.672;10.014;2023-06-05T15:46:35;29.40;48.90
29363;DHT22;16349;53.672;10.014;2023-06-05T15:49:01;29.00;48.70
29363;DHT22;16349;53.672;10.014;2023-06-05T15:51:28;28.60;49.40
29363;DHT22;16349;53.672;10.014;2023-06-05T15:53:55;28.20;50.20
29363;DHT22;16349;53.672;10.014;2023-06-05T15:56:24;28.30;50.30
29363;DHT22;16349;53.672;10.014;2023-06-05T15:58:51;27.80;51.40